createdAt,value
2022-08-11T00:00:04.371Z,42.54
2022-08-11T00:01:00.391Z,41.13
2022-08-11T00:02:00.898Z,40.96
2022-08-11T00:03:00.556Z,45.69
2022-08-11T00:04:02.332Z,48.52
2022-08-11T00:05:01.828Z,48.88
2022-08-11T00:06:01.316Z,52.70
2022-08-11T00:07:02.815Z,48.54
2022-08-11T00:08:16.820Z,43.46
2022-08-11T00:09:01.870Z,42.35
2022-08-11T00:10:01.838Z,46.10
2022-08-11T00:11:00.321Z,43.82
2022-08-11T00:12:00.031Z,42.77
2022-08-11T00:13:00.375Z,36.23
2022-08-11T00:13:59.394Z,41.05
2022-08-11T00:15:01.450Z,42.38
2022-08-11T00:16:01.377Z,44.10
2022-08-11T00:17:04.331Z,41.50
2022-08-11T00:17:59.819Z,40.25
2022-08-11T00:19:01.390Z,39.93
2022-08-11T00:20:13.014Z,40.96
2022-08-11T00:21:02.963Z,45.17
2022-08-11T00:22:06.461Z,51.39
2022-08-11T00:23:06.383Z,41.28
2022-08-11T00:24:05.822Z,49.19
2022-08-11T00:25:02.704Z,47.66
2022-08-11T00:26:04.344Z,45.67
2022-08-11T00:27:02.824Z,47.84
2022-08-11T00:28:03.363Z,37.26
2022-08-11T00:29:01.382Z,32.43
2022-08-11T00:30:01.824Z,32.68
2022-08-11T00:31:01.886Z,41.65
2022-08-11T00:32:00.889Z,45.69
2022-08-11T00:33:02.324Z,59.06
2022-08-11T00:34:02.390Z,48.70
2022-08-11T00:35:51.717Z,40.66
2022-08-11T00:36:00.824Z,34.39
2022-08-11T00:37:02.344Z,40.45
2022-08-11T00:38:00.337Z,41.94
2022-08-11T00:39:02.399Z,40.37
2022-08-11T00:40:02.440Z,44.95
2022-08-11T00:41:00.826Z,52.87
2022-08-11T00:42:01.392Z,50.31
2022-08-11T00:43:03.326Z,48.21
2022-08-11T00:44:14.334Z,44.67
2022-08-11T00:45:00.903Z,44.91
2022-08-11T00:46:02.328Z,47.19
2022-08-11T00:47:00.887Z,46.93
2022-08-11T00:48:00.831Z,49.82
2022-08-11T00:49:00.331Z,45.34
2022-08-11T00:50:01.350Z,46.25
2022-08-11T00:51:01.897Z,54.98
2022-08-11T00:52:05.619Z,47.55
2022-08-11T00:53:03.837Z,50.61
2022-08-11T00:54:01.830Z,50.24
2022-08-11T00:55:00.830Z,54.29
2022-08-11T00:55:59.558Z,49.50
2022-08-11T00:57:00.330Z,41.45
2022-08-11T00:58:09.349Z,48.05
2022-08-11T00:58:59.834Z,47.45
2022-08-11T01:00:03.743Z,42.26
2022-08-11T01:01:00.956Z,36.25
2022-08-11T01:02:01.335Z,42.67
2022-08-11T01:03:00.834Z,44.38
2022-08-11T01:03:59.403Z,39.11
2022-08-11T01:05:00.385Z,39.27
2022-08-11T01:06:01.834Z,41.97
2022-08-11T01:07:00.349Z,42.03
2022-08-11T01:08:03.530Z,40.42
2022-08-11T01:09:01.334Z,45.29
2022-08-11T01:10:05.060Z,46.89
2022-08-11T01:11:02.888Z,51.35
2022-08-11T01:12:03.337Z,46.43
2022-08-11T01:13:00.365Z,40.89
2022-08-11T01:14:01.336Z,41.94
2022-08-11T01:14:59.845Z,39.06
2022-08-11T01:15:59.403Z,44.20
2022-08-11T01:16:59.397Z,47.39
2022-08-11T01:18:00.338Z,48.65
2022-08-11T01:18:59.841Z,40.90
2022-08-11T01:20:45.789Z,39.24
2022-08-11T01:21:00.090Z,44.26
2022-08-11T01:21:58.899Z,44.37
2022-08-11T01:23:00.339Z,52.68
2022-08-11T01:24:00.350Z,43.59
2022-08-11T01:24:59.847Z,46.72
2022-08-11T01:26:01.352Z,50.22
2022-08-11T01:26:59.857Z,55.88
2022-08-11T01:27:59.969Z,41.32
2022-08-11T01:29:00.402Z,44.67
2022-08-11T01:30:01.342Z,46.28
2022-08-11T01:30:59.910Z,40.08
2022-08-11T01:32:01.401Z,40.42
2022-08-11T01:33:02.344Z,48.83
2022-08-11T01:34:30.945Z,45.12
2022-08-11T01:34:58.168Z,39.31
2022-08-11T01:35:58.191Z,41.40
2022-08-11T01:36:58.154Z,46.43
2022-08-11T01:37:58.144Z,42.99
2022-08-11T01:38:58.138Z,38.01
2022-08-11T01:39:58.265Z,41.52
2022-08-11T01:40:58.148Z,39.34
2022-08-11T01:41:58.112Z,45.06
2022-08-11T01:42:58.097Z,43.30
2022-08-11T01:43:59.100Z,40.62
2022-08-11T01:44:58.096Z,40.95
2022-08-11T01:45:58.110Z,41.06
2022-08-11T01:46:58.077Z,40.56
2022-08-11T01:47:58.062Z,45.57
2022-08-11T01:48:58.058Z,43.20
2022-08-11T01:50:07.752Z,37.98
2022-08-11T01:50:59.064Z,32.23
2022-08-11T01:51:58.038Z,38.64
2022-08-11T01:52:58.031Z,44.60
2022-08-11T01:53:58.023Z,48.06
2022-08-11T01:54:58.015Z,46.72
2022-08-11T01:55:58.035Z,39.21
2022-08-11T01:56:57.996Z,40.62
2022-08-11T01:57:57.993Z,49.52
2022-08-11T01:58:57.977Z,49.18
2022-08-11T01:59:57.976Z,45.71
2022-08-11T02:00:58.053Z,43.45
2022-08-11T02:01:57.960Z,44.98
2022-08-11T02:02:57.953Z,43.88
2022-08-11T02:03:57.948Z,43.89
2022-08-11T02:04:57.941Z,43.14
2022-08-11T02:05:57.965Z,49.46
2022-08-11T02:06:57.927Z,45.98
2022-08-11T02:07:57.910Z,46.97
2022-08-11T02:08:57.907Z,43.07
2022-08-11T02:09:57.902Z,41.67
2022-08-11T02:10:57.887Z,44.09
2022-08-11T02:11:57.910Z,48.76
2022-08-11T02:12:57.872Z,57.57
2022-08-11T02:13:57.868Z,42.00
2022-08-11T02:15:05.001Z,41.68
2022-08-11T02:15:58.858Z,40.72
2022-08-11T02:16:57.866Z,42.30
2022-08-11T02:17:57.833Z,49.42
2022-08-11T02:18:57.824Z,38.64
2022-08-11T02:19:57.821Z,43.44
2022-08-11T02:20:57.812Z,56.11
2022-08-11T02:21:57.826Z,48.43
2022-08-11T02:22:57.794Z,46.65
2022-08-11T02:24:05.508Z,50.37
2022-08-11T02:24:58.779Z,57.09
2022-08-11T02:25:57.772Z,51.14
2022-08-11T02:26:57.790Z,46.18
2022-08-11T02:27:57.754Z,43.62
2022-08-11T02:28:57.757Z,39.31
2022-08-11T02:29:57.733Z,44.31
2022-08-11T02:30:57.736Z,41.95
2022-08-11T02:32:15.936Z,40.18
2022-08-11T02:32:58.713Z,38.91
2022-08-11T02:33:57.712Z,48.46
2022-08-11T02:35:00.126Z,43.28
2022-08-11T02:35:57.697Z,46.74
2022-08-11T02:36:57.714Z,50.99
2022-08-11T02:37:57.684Z,44.11
2022-08-11T02:38:57.674Z,48.24
2022-08-11T02:39:57.667Z,45.68
2022-08-11T02:40:57.663Z,44.10
2022-08-11T02:41:57.680Z,43.05
2022-08-11T02:42:57.649Z,46.06
2022-08-11T02:43:57.639Z,47.38
2022-08-11T02:44:57.630Z,56.48
2022-08-11T02:45:57.622Z,46.82
2022-08-11T02:46:57.640Z,42.63
2022-08-11T02:47:57.609Z,45.67
2022-08-11T02:48:57.602Z,50.35
2022-08-11T02:50:02.540Z,56.55
2022-08-11T02:50:58.588Z,51.88
2022-08-11T02:51:57.598Z,46.83
2022-08-11T02:52:57.573Z,51.21
2022-08-11T02:53:58.250Z,50.38
2022-08-11T02:54:57.558Z,55.55
2022-08-11T02:55:58.386Z,54.90
2022-08-11T02:56:58.574Z,52.10
2022-08-11T02:57:57.534Z,50.84
2022-08-11T02:58:57.526Z,44.21
2022-08-11T02:59:57.522Z,48.79
2022-08-11T03:00:57.514Z,46.18
2022-08-11T03:02:00.657Z,46.02
2022-08-11T03:02:58.494Z,47.84
2022-08-11T03:03:57.492Z,53.25
2022-08-11T03:04:57.483Z,53.18
2022-08-11T03:05:57.468Z,50.89
2022-08-11T03:06:58.513Z,50.31
2022-08-11T03:07:57.462Z,50.72
2022-08-11T03:08:57.461Z,52.01
2022-08-11T03:09:57.447Z,52.06
2022-08-11T03:10:57.437Z,52.02
2022-08-11T03:11:57.464Z,51.18
2022-08-11T03:12:57.425Z,51.50
2022-08-11T03:13:57.421Z,52.18
2022-08-11T03:14:57.415Z,51.72
2022-08-11T03:15:57.410Z,54.90
2022-08-11T03:16:57.424Z,55.73
2022-08-11T03:17:57.389Z,51.89
2022-08-11T03:18:57.384Z,53.95
2022-08-11T03:19:57.377Z,56.25
2022-08-11T03:20:57.363Z,50.47
2022-08-11T03:22:03.254Z,57.10
2022-08-11T03:22:58.350Z,56.98
2022-08-11T03:23:57.340Z,54.23
2022-08-11T03:24:57.349Z,50.59
2022-08-11T03:25:57.333Z,56.09
2022-08-11T03:26:57.348Z,55.44
2022-08-11T03:27:57.317Z,54.52
2022-08-11T03:28:58.300Z,53.86
2022-08-11T03:29:57.296Z,55.84
2022-08-11T03:30:57.287Z,55.17
2022-08-11T03:31:57.304Z,54.72
2022-08-11T03:32:57.274Z,54.16
2022-08-11T03:33:58.716Z,54.87
2022-08-11T03:34:57.261Z,56.03
2022-08-11T03:35:57.251Z,52.34
2022-08-11T03:37:17.865Z,54.05
2022-08-11T03:37:58.234Z,53.14
2022-08-11T03:38:57.222Z,54.93
2022-08-11T03:39:57.360Z,59.51
2022-08-11T03:40:57.206Z,54.39
2022-08-11T03:42:03.494Z,55.67
2022-08-11T03:42:58.189Z,58.24
2022-08-11T03:43:58.647Z,53.29
2022-08-11T03:44:57.172Z,51.35
2022-08-11T03:45:57.170Z,52.93
2022-08-11T03:46:57.188Z,55.04
2022-08-11T03:47:57.149Z,57.44
2022-08-11T03:48:57.144Z,54.49
2022-08-11T03:49:57.376Z,54.09
2022-08-11T03:50:57.129Z,53.95
2022-08-11T03:51:57.149Z,54.33
2022-08-11T03:52:57.110Z,51.75
2022-08-11T03:53:57.106Z,53.17
2022-08-11T03:54:57.097Z,51.26
2022-08-11T03:55:57.095Z,54.36
2022-08-11T03:56:57.109Z,53.14
2022-08-11T03:57:57.075Z,53.76
2022-08-11T03:58:57.072Z,52.45
2022-08-11T03:59:57.061Z,53.64
2022-08-11T04:00:57.154Z,49.85
2022-08-11T04:01:57.136Z,50.53
2022-08-11T04:02:57.042Z,58.48
2022-08-11T04:03:57.033Z,54.70
2022-08-11T04:04:57.082Z,55.61
2022-08-11T04:05:57.017Z,53.46
2022-08-11T04:06:57.037Z,56.34
2022-08-11T04:07:56.999Z,53.37
2022-08-11T04:08:56.989Z,54.33
2022-08-11T04:09:56.980Z,53.39
2022-08-11T04:10:58.240Z,51.53
2022-08-11T04:11:57.012Z,52.96
2022-08-11T04:12:56.960Z,55.89
2022-08-11T04:13:56.952Z,61.55
2022-08-11T04:14:56.953Z,55.43
2022-08-11T04:15:56.940Z,55.81
2022-08-11T04:16:56.958Z,54.45
2022-08-11T04:17:56.921Z,56.35
2022-08-11T04:18:56.913Z,55.62
2022-08-11T04:19:56.904Z,53.01
2022-08-11T04:20:56.900Z,52.19
2022-08-11T04:21:56.923Z,54.10
2022-08-11T04:22:56.878Z,54.28
2022-08-11T04:24:35.011Z,51.22
2022-08-11T04:24:57.862Z,57.68
2022-08-11T04:25:58.455Z,55.17
2022-08-11T04:26:56.855Z,53.92
2022-08-11T04:27:56.872Z,52.62
2022-08-11T04:28:56.845Z,54.40
2022-08-11T04:30:05.258Z,50.79
2022-08-11T04:30:57.822Z,56.72
2022-08-11T04:31:56.829Z,53.82
2022-08-11T04:32:56.863Z,54.34
2022-08-11T04:33:57.141Z,57.06
2022-08-11T04:34:56.790Z,52.94
2022-08-11T04:35:56.783Z,54.59
2022-08-11T04:36:56.798Z,53.65
2022-08-11T04:37:56.791Z,53.98
2022-08-11T04:38:56.786Z,54.33
2022-08-11T04:39:56.759Z,55.32
2022-08-11T04:40:56.743Z,55.56
2022-08-11T04:41:56.751Z,54.91
2022-08-11T04:42:56.758Z,57.04
2022-08-11T04:44:02.440Z,57.98
2022-08-11T04:44:57.732Z,57.67
2022-08-11T04:45:56.707Z,56.60
2022-08-11T04:46:56.697Z,56.34
2022-08-11T04:48:03.837Z,56.32
2022-08-11T04:48:57.687Z,58.23
2022-08-11T04:49:56.678Z,54.59
2022-08-11T04:51:00.749Z,51.93
2022-08-11T04:51:57.681Z,55.53
2022-08-11T04:52:56.663Z,60.83
2022-08-11T04:53:56.668Z,55.58
2022-08-11T04:54:56.639Z,53.06
2022-08-11T04:55:56.638Z,54.42
2022-08-11T04:56:56.649Z,53.51
2022-08-11T04:57:56.713Z,60.71
2022-08-11T04:58:56.613Z,53.74
2022-08-11T04:59:56.599Z,53.48
2022-08-11T05:00:56.803Z,53.65
2022-08-11T05:01:56.827Z,54.48
2022-08-11T05:02:56.633Z,57.27
2022-08-11T05:03:56.594Z,54.68
2022-08-11T05:04:56.563Z,51.37
2022-08-11T05:05:57.127Z,54.82
2022-08-11T05:06:56.553Z,51.89
2022-08-11T05:07:56.580Z,53.50
2022-08-11T05:08:57.008Z,55.64
2022-08-11T05:09:57.011Z,54.51
2022-08-11T05:10:56.727Z,55.02
2022-08-11T05:11:59.476Z,56.71
2022-08-11T05:12:57.505Z,55.51
2022-08-11T05:13:56.987Z,53.96
2022-08-11T05:14:56.776Z,55.08
2022-08-11T05:15:56.560Z,54.88
2022-08-11T05:16:56.476Z,55.75
2022-08-11T05:17:56.797Z,57.23
2022-08-11T05:18:56.490Z,57.22
2022-08-11T05:19:56.444Z,56.13
2022-08-11T05:20:58.619Z,54.42
2022-08-11T05:21:57.307Z,55.65
2022-08-11T05:22:56.527Z,55.07
2022-08-11T05:23:56.441Z,52.29
2022-08-11T05:24:56.414Z,59.26
2022-08-11T05:26:43.420Z,53.01
2022-08-11T05:26:57.402Z,52.12
2022-08-11T05:27:56.388Z,54.89
2022-08-11T05:28:56.417Z,50.21
2022-08-11T05:29:56.373Z,56.68
2022-08-11T05:30:56.361Z,52.50
2022-08-11T05:31:56.400Z,53.50
2022-08-11T05:33:01.406Z,56.17
2022-08-11T05:33:58.501Z,61.58
2022-08-11T05:34:56.368Z,49.17
2022-08-11T05:36:02.210Z,52.53
2022-08-11T05:37:17.260Z,53.98
2022-08-11T05:37:58.312Z,54.79
2022-08-11T05:38:56.332Z,51.24
2022-08-11T05:39:56.372Z,53.56
2022-08-11T05:40:59.938Z,60.10
2022-08-11T05:41:56.290Z,56.79
2022-08-11T05:42:56.281Z,55.05
2022-08-11T05:44:19.696Z,52.95
2022-08-11T05:44:57.365Z,54.76
2022-08-11T05:46:03.837Z,56.64
2022-08-11T05:46:57.241Z,55.73
2022-08-11T05:47:56.252Z,59.53
2022-08-11T05:48:56.252Z,53.98
2022-08-11T05:49:57.869Z,53.55
2022-08-11T05:50:56.211Z,55.62
2022-08-11T05:51:57.166Z,52.91
2022-08-11T05:52:57.381Z,54.16
2022-08-11T05:53:56.214Z,55.97
2022-08-11T05:54:56.174Z,52.38
2022-08-11T05:56:02.862Z,50.50
2022-08-11T05:56:57.171Z,51.80
2022-08-11T05:57:56.166Z,56.45
2022-08-11T05:58:56.174Z,54.48
2022-08-11T05:59:56.142Z,52.54
2022-08-11T06:00:56.138Z,53.80
2022-08-11T06:01:56.189Z,52.57
2022-08-11T06:02:56.123Z,53.21
2022-08-11T06:03:58.012Z,52.89
2022-08-11T06:04:56.110Z,54.74
2022-08-11T06:05:56.100Z,53.57
2022-08-11T06:06:56.087Z,51.99
2022-08-11T06:07:57.317Z,55.09
2022-08-11T06:08:56.085Z,55.12
2022-08-11T06:09:57.071Z,55.49
2022-08-11T06:10:56.055Z,50.01
2022-08-11T06:11:56.048Z,53.54
2022-08-11T06:12:56.046Z,54.21
2022-08-11T06:13:56.058Z,54.81
2022-08-11T06:14:56.018Z,51.31
2022-08-11T06:15:56.022Z,54.82
2022-08-11T06:16:56.004Z,49.31
2022-08-11T06:17:56.012Z,51.91
2022-08-11T06:18:56.012Z,52.54
2022-08-11T06:19:55.987Z,52.96
2022-08-11T06:20:56.971Z,53.23
2022-08-11T06:21:55.963Z,57.21
2022-08-11T06:22:55.966Z,52.29
2022-08-11T06:23:55.971Z,54.42
2022-08-11T06:24:55.958Z,53.15
2022-08-11T06:25:56.455Z,55.11
2022-08-11T06:27:11.873Z,53.43
2022-08-11T06:27:57.949Z,50.10
2022-08-11T06:28:55.944Z,52.32
2022-08-11T06:29:55.967Z,51.93
2022-08-11T06:30:55.906Z,55.69
2022-08-11T06:31:56.006Z,54.15
2022-08-11T06:32:55.879Z,55.50
2022-08-11T06:33:55.933Z,53.37
2022-08-11T06:34:55.869Z,51.60
2022-08-11T06:35:55.992Z,54.14
2022-08-11T06:36:55.857Z,60.59
2022-08-11T06:37:58.980Z,56.93
2022-08-11T06:38:55.860Z,50.95
2022-08-11T06:39:55.891Z,57.12
2022-08-11T06:40:55.816Z,53.48
2022-08-11T06:41:55.810Z,55.37
2022-08-11T06:42:55.804Z,55.23
2022-08-11T06:43:56.396Z,54.71
2022-08-11T06:44:55.790Z,54.75
2022-08-11T06:45:55.786Z,52.47
2022-08-11T06:46:55.776Z,55.28
2022-08-11T06:47:55.811Z,56.41
2022-08-11T06:48:55.778Z,52.71
2022-08-11T06:49:55.755Z,55.06
2022-08-11T06:50:55.750Z,56.79
2022-08-11T06:51:55.734Z,53.16
2022-08-11T06:52:55.742Z,47.63
2022-08-11T06:54:03.068Z,52.64
2022-08-11T06:54:56.709Z,51.56
2022-08-11T06:55:58.788Z,54.47
2022-08-11T06:57:57.685Z,51.46
2022-08-11T06:58:55.695Z,56.76
2022-08-11T06:59:56.665Z,55.99
2022-08-11T07:00:55.661Z,50.07
2022-08-11T07:01:55.701Z,56.59
2022-08-11T07:02:55.647Z,49.21
2022-08-11T07:03:55.663Z,52.32
2022-08-11T07:04:55.634Z,53.74
2022-08-11T07:05:55.631Z,57.20
2022-08-11T07:06:55.611Z,55.18
2022-08-11T07:07:55.607Z,55.19
2022-08-11T07:08:55.632Z,53.85
2022-08-11T07:09:55.588Z,55.32
2022-08-11T07:10:55.585Z,57.33
2022-08-11T07:11:55.581Z,52.39
2022-08-11T07:12:55.571Z,53.32
2022-08-11T07:13:55.578Z,55.10
2022-08-11T07:15:00.213Z,55.44
2022-08-11T07:16:11.129Z,52.81
2022-08-11T07:16:56.538Z,52.53
2022-08-11T07:17:55.529Z,53.63
2022-08-11T07:18:55.554Z,57.71
2022-08-11T07:19:56.946Z,59.64
2022-08-11T07:20:59.924Z,52.88
2022-08-11T07:22:01.065Z,55.17
2022-08-11T07:22:56.748Z,60.57
2022-08-11T07:23:55.516Z,51.61
2022-08-11T07:24:59.737Z,59.94
2022-08-11T07:25:56.479Z,54.68
2022-08-11T07:26:55.466Z,50.65
2022-08-11T07:27:55.469Z,52.24
2022-08-11T07:28:55.473Z,53.17
2022-08-11T07:29:55.440Z,53.42
2022-08-11T07:30:55.495Z,57.18
2022-08-11T07:31:55.418Z,57.23
2022-08-11T07:32:55.416Z,55.96
2022-08-11T07:34:21.353Z,52.56
2022-08-11T07:34:55.406Z,55.48
2022-08-11T07:35:55.399Z,51.24
2022-08-11T07:36:55.387Z,55.04
2022-08-11T07:38:01.924Z,52.94
2022-08-11T07:38:56.402Z,55.05
2022-08-11T07:39:55.465Z,57.02
2022-08-11T07:40:55.352Z,54.31
2022-08-11T07:41:55.347Z,54.83
2022-08-11T07:42:55.342Z,56.79
2022-08-11T07:43:55.361Z,54.26
2022-08-11T07:44:55.325Z,57.74
2022-08-11T07:45:55.324Z,57.13
2022-08-11T07:46:55.311Z,55.30
2022-08-11T07:47:55.308Z,54.23
2022-08-11T07:48:55.326Z,58.79
2022-08-11T07:49:55.288Z,52.03
2022-08-11T07:50:56.257Z,50.95
2022-08-11T07:51:56.298Z,54.27
2022-08-11T07:52:55.275Z,57.16
2022-08-11T07:54:03.170Z,52.99
2022-08-11T07:54:56.336Z,53.33
2022-08-11T07:55:55.250Z,55.33
2022-08-11T07:57:09.017Z,54.11
2022-08-11T07:58:15.733Z,55.41
2022-08-11T07:59:03.404Z,56.41
2022-08-11T08:00:04.343Z,55.07
2022-08-11T08:00:56.310Z,55.03
2022-08-11T08:01:55.261Z,54.25
2022-08-11T08:02:55.194Z,54.54
2022-08-11T08:03:55.183Z,55.40
2022-08-11T08:04:55.229Z,52.54
2022-08-11T08:05:55.170Z,53.89
2022-08-11T08:06:55.167Z,54.23
2022-08-11T08:07:55.157Z,57.85
2022-08-11T08:08:55.150Z,49.45
2022-08-11T08:09:55.170Z,55.00
2022-08-11T08:10:55.135Z,56.91
2022-08-11T08:11:55.122Z,51.84
2022-08-11T08:12:55.117Z,52.93
2022-08-11T08:13:55.120Z,54.09
2022-08-11T08:14:55.130Z,54.44
2022-08-11T08:15:55.098Z,53.04
2022-08-11T08:16:55.729Z,51.39
2022-08-11T08:18:09.287Z,52.51
2022-08-11T08:18:56.072Z,53.18
2022-08-11T08:19:55.096Z,52.77
2022-08-11T08:20:55.081Z,52.75
2022-08-11T08:21:55.075Z,55.39
2022-08-11T08:22:56.065Z,52.25
2022-08-11T08:23:56.468Z,54.11
2022-08-11T08:24:55.058Z,54.23
2022-08-11T08:25:55.020Z,51.79
2022-08-11T08:26:55.015Z,52.41
2022-08-11T08:27:55.027Z,55.11
2022-08-11T08:28:54.998Z,56.48
2022-08-11T08:29:55.015Z,52.21
2022-08-11T08:30:55.987Z,52.99
2022-08-11T08:31:55.048Z,52.95
2022-08-11T08:32:54.971Z,53.61
2022-08-11T08:33:54.965Z,53.36
2022-08-11T08:34:54.990Z,51.27
2022-08-11T08:35:54.948Z,52.61
2022-08-11T08:36:54.947Z,53.19
2022-08-11T08:37:56.190Z,50.72
2022-08-11T08:38:54.921Z,53.69
2022-08-11T08:39:55.036Z,55.42
2022-08-11T08:40:56.445Z,54.76
2022-08-11T08:41:55.903Z,51.59
2022-08-11T08:42:54.891Z,55.25
2022-08-11T08:43:55.837Z,56.90
2022-08-11T08:44:54.908Z,53.94
2022-08-11T08:45:54.878Z,52.21
2022-08-11T08:46:54.870Z,53.96
2022-08-11T08:47:54.865Z,54.85
2022-08-11T08:48:54.850Z,51.79
2022-08-11T08:49:54.848Z,54.09
2022-08-11T08:50:54.865Z,54.41
2022-08-11T08:52:21.073Z,57.31
2022-08-11T08:52:55.818Z,51.54
2022-08-11T08:53:56.651Z,55.96
2022-08-11T08:54:54.805Z,53.02
2022-08-11T08:55:54.826Z,49.07
2022-08-11T08:56:54.789Z,55.28
2022-08-11T08:57:54.810Z,52.47
2022-08-11T08:58:54.789Z,55.42
2022-08-11T08:59:54.776Z,54.07
2022-08-11T09:00:54.827Z,54.35
2022-08-11T09:01:54.761Z,49.00
2022-08-11T09:02:54.747Z,52.82
2022-08-11T09:04:06.844Z,53.03
2022-08-11T09:04:55.741Z,51.88
2022-08-11T09:05:54.750Z,55.67
2022-08-11T09:06:54.724Z,60.39
2022-08-11T09:07:54.730Z,51.38
2022-08-11T09:08:54.706Z,51.85
2022-08-11T09:09:54.695Z,51.80
2022-08-11T09:10:54.707Z,56.14
2022-08-11T09:11:54.680Z,54.48
2022-08-11T09:12:54.734Z,55.52
2022-08-11T09:14:03.195Z,60.45
2022-08-11T09:14:55.652Z,55.54
2022-08-11T09:15:56.533Z,53.17
2022-08-11T09:16:55.634Z,53.92
2022-08-11T09:17:54.647Z,52.83
2022-08-11T09:18:54.639Z,53.11
2022-08-11T09:19:57.926Z,59.64
2022-08-11T09:20:54.646Z,55.89
2022-08-11T09:21:54.607Z,55.15
2022-08-11T09:23:24.271Z,54.46
2022-08-11T09:24:20.643Z,54.18
2022-08-11T09:24:56.588Z,57.15
2022-08-11T09:25:54.602Z,55.65
2022-08-11T09:26:54.574Z,52.26
2022-08-11T09:27:54.580Z,52.39
2022-08-11T09:28:54.551Z,52.45
2022-08-11T09:29:54.548Z,56.47
2022-08-11T09:30:54.601Z,55.63
2022-08-11T09:31:54.531Z,55.89
2022-08-11T09:32:54.525Z,57.85
2022-08-11T09:33:54.522Z,54.40
2022-08-11T09:34:54.520Z,52.82
2022-08-11T09:35:54.534Z,52.72
2022-08-11T09:36:54.522Z,52.09
2022-08-11T09:37:56.483Z,56.88
2022-08-11T09:38:54.477Z,53.93
2022-08-11T09:39:54.494Z,54.38
2022-08-11T09:40:57.147Z,53.00
2022-08-11T09:42:01.067Z,50.83
2022-08-11T09:42:55.445Z,51.25
2022-08-11T09:43:54.436Z,54.55
2022-08-11T09:44:54.439Z,53.59
2022-08-11T09:45:54.462Z,57.37
2022-08-11T09:46:54.434Z,52.04
2022-08-11T09:47:54.415Z,46.20
2022-08-11T09:48:54.402Z,53.03
2022-08-11T09:49:54.396Z,51.48
2022-08-11T09:50:54.416Z,51.54
2022-08-11T09:51:56.532Z,53.24
2022-08-11T09:53:34.907Z,56.31
2022-08-11T09:54:04.117Z,55.57
2022-08-11T09:54:55.365Z,56.01
2022-08-11T09:55:54.394Z,52.97
2022-08-11T09:56:54.395Z,54.96
2022-08-11T09:57:55.339Z,59.10
2022-08-11T09:58:54.334Z,56.03
2022-08-11T10:00:11.427Z,56.96
2022-08-11T10:00:55.374Z,54.20
2022-08-11T10:01:54.405Z,55.79
2022-08-11T10:02:54.322Z,54.52
2022-08-11T10:03:54.298Z,57.15
2022-08-11T10:04:54.295Z,53.19
2022-08-11T10:05:54.313Z,52.11
2022-08-11T10:06:55.325Z,55.67
2022-08-11T10:07:54.275Z,59.70
2022-08-11T10:08:54.259Z,57.42
2022-08-11T10:09:54.267Z,56.23
2022-08-11T10:10:54.279Z,54.17
2022-08-11T10:11:55.438Z,53.93
2022-08-11T10:12:54.228Z,56.86
2022-08-11T10:14:33.646Z,55.29
2022-08-11T10:14:55.212Z,55.80
2022-08-11T10:16:14.434Z,55.25
2022-08-11T10:16:55.197Z,54.15
2022-08-11T10:17:54.193Z,55.88
2022-08-11T10:18:54.210Z,56.50
2022-08-11T10:20:05.060Z,52.81
2022-08-11T10:20:55.193Z,52.62
2022-08-11T10:21:54.175Z,54.48
2022-08-11T10:22:54.155Z,52.41
2022-08-11T10:24:01.204Z,56.16
2022-08-11T10:24:55.135Z,57.85
2022-08-11T10:25:54.152Z,54.55
2022-08-11T10:26:54.130Z,54.78
2022-08-11T10:28:28.662Z,46.50
2022-08-11T10:29:12.169Z,49.25
2022-08-11T10:29:56.103Z,55.70
2022-08-11T10:30:54.123Z,56.28
2022-08-11T10:31:57.587Z,55.57
2022-08-11T10:32:58.872Z,55.41
2022-08-11T10:33:59.319Z,56.42
2022-08-11T10:34:57.848Z,56.79
2022-08-11T10:35:54.095Z,55.28
2022-08-11T10:36:54.049Z,50.26
2022-08-11T10:38:06.531Z,50.93
2022-08-11T10:38:55.030Z,48.20
2022-08-11T10:39:54.084Z,56.25
2022-08-11T10:40:54.059Z,55.06
2022-08-11T10:42:08.508Z,49.82
2022-08-11T10:42:58.064Z,52.03
2022-08-11T10:44:02.171Z,53.46
2022-08-11T10:44:54.999Z,53.91
2022-08-11T10:45:53.998Z,54.39
2022-08-11T10:46:54.007Z,50.89
2022-08-11T10:47:53.973Z,53.65
2022-08-11T10:48:53.968Z,58.86
2022-08-11T10:49:53.968Z,55.22
2022-08-11T10:50:53.953Z,55.20
2022-08-11T10:51:54.090Z,56.32
2022-08-11T10:52:53.935Z,57.46
2022-08-11T10:53:53.930Z,54.31
2022-08-11T10:54:53.924Z,51.11
2022-08-11T10:55:53.918Z,56.99
2022-08-11T10:56:53.929Z,50.73
2022-08-11T10:58:04.760Z,47.82
2022-08-11T10:58:54.895Z,49.76
2022-08-11T10:59:53.894Z,53.43
2022-08-11T11:00:53.956Z,55.82
2022-08-11T11:01:53.900Z,51.78
2022-08-11T11:03:22.125Z,55.02
2022-08-11T11:03:54.854Z,53.97
2022-08-11T11:04:53.850Z,55.20
2022-08-11T11:06:12.631Z,55.06
2022-08-11T11:06:54.866Z,62.34
2022-08-11T11:07:53.834Z,57.07
2022-08-11T11:08:55.571Z,54.45
2022-08-11T11:09:54.811Z,51.87
2022-08-11T11:10:53.783Z,55.19
2022-08-11T11:11:54.822Z,56.53
2022-08-11T11:12:53.796Z,56.70
2022-08-11T11:13:55.460Z,55.94
2022-08-11T11:14:58.194Z,54.61
2022-08-11T11:15:55.764Z,53.26
2022-08-11T11:16:53.786Z,48.01
2022-08-11T11:17:53.755Z,55.58
2022-08-11T11:19:01.235Z,54.37
2022-08-11T11:19:54.739Z,55.98
2022-08-11T11:20:53.723Z,54.80
2022-08-11T11:21:53.746Z,54.78
2022-08-11T11:22:53.718Z,54.96
2022-08-11T11:23:53.709Z,53.74
2022-08-11T11:24:53.699Z,53.57
2022-08-11T11:25:57.155Z,60.41
2022-08-11T11:26:54.715Z,58.35
2022-08-11T11:27:53.673Z,59.91
2022-08-11T11:28:53.683Z,58.48
2022-08-11T11:29:53.681Z,57.52
2022-08-11T11:30:53.651Z,55.90
2022-08-11T11:31:53.674Z,53.20
2022-08-11T11:32:53.669Z,53.55
2022-08-11T11:34:06.671Z,54.98
2022-08-11T11:34:54.646Z,55.95
2022-08-11T11:35:53.618Z,56.70
2022-08-11T11:36:53.657Z,56.15
2022-08-11T11:38:03.578Z,57.41
2022-08-11T11:38:54.611Z,58.68
2022-08-11T11:39:53.627Z,62.92
2022-08-11T11:40:53.590Z,58.61
2022-08-11T11:41:53.603Z,56.12
2022-08-11T11:42:53.566Z,57.70
2022-08-11T11:43:53.564Z,55.40
2022-08-11T11:44:56.033Z,55.10
2022-08-11T11:45:54.563Z,54.02
2022-08-11T11:46:53.570Z,54.08
2022-08-11T11:47:53.823Z,53.10
2022-08-11T11:48:53.530Z,58.46
2022-08-11T11:49:53.526Z,56.82
2022-08-11T11:50:56.786Z,58.94
2022-08-11T11:51:54.532Z,59.01
2022-08-11T11:52:53.502Z,55.18
2022-08-11T11:53:53.497Z,55.63
2022-08-11T11:54:53.481Z,61.60
2022-08-11T11:55:53.477Z,57.47
2022-08-11T11:56:53.499Z,57.62
2022-08-11T11:57:59.112Z,55.17
2022-08-11T11:58:54.455Z,54.18
2022-08-11T11:59:53.448Z,54.75
2022-08-11T12:00:53.445Z,54.69
2022-08-11T12:01:53.462Z,55.13
2022-08-11T12:02:53.511Z,54.21
2022-08-11T12:03:53.422Z,54.73
2022-08-11T12:04:53.422Z,53.93
2022-08-11T12:05:53.412Z,54.91
2022-08-11T12:06:53.411Z,51.99
2022-08-11T12:08:05.022Z,60.14
2022-08-11T12:08:54.385Z,58.70
2022-08-11T12:09:53.396Z,55.90
2022-08-11T12:10:53.375Z,56.88
2022-08-11T12:11:53.379Z,55.67
2022-08-11T12:12:53.378Z,56.33
2022-08-11T12:13:53.356Z,55.28
2022-08-11T12:14:53.346Z,56.37
2022-08-11T12:16:32.325Z,52.15
2022-08-11T12:16:54.321Z,53.15
2022-08-11T12:17:53.344Z,58.23
2022-08-11T12:18:53.439Z,53.63
2022-08-11T12:19:53.312Z,60.70
2022-08-11T12:20:53.324Z,55.40
2022-08-11T12:21:53.282Z,56.71
2022-08-11T12:22:54.320Z,54.91
2022-08-11T12:23:53.277Z,56.21
2022-08-11T12:24:53.264Z,58.69
2022-08-11T12:26:16.255Z,57.58
2022-08-11T12:27:16.222Z,56.15
2022-08-11T12:27:54.271Z,57.80
2022-08-11T12:28:53.237Z,59.95
2022-08-11T12:29:55.616Z,58.23
2022-08-11T12:30:54.416Z,53.12
2022-08-11T12:31:53.226Z,53.47
2022-08-11T12:32:53.231Z,55.30
2022-08-11T12:33:53.204Z,48.42
2022-08-11T12:34:53.191Z,52.90
2022-08-11T12:36:01.052Z,55.24
2022-08-11T12:36:54.183Z,57.57
2022-08-11T12:37:57.297Z,57.23
2022-08-11T12:38:54.167Z,54.93
2022-08-11T12:40:16.910Z,58.22
2022-08-11T12:41:16.615Z,55.35
2022-08-11T12:41:55.157Z,55.46
2022-08-11T12:42:55.407Z,56.75
2022-08-11T12:43:56.674Z,53.72
2022-08-11T12:44:53.123Z,61.45
2022-08-11T12:45:53.111Z,58.08
2022-08-11T12:46:53.108Z,56.74
2022-08-11T12:48:40.216Z,57.35
2022-08-11T12:48:58.358Z,57.30
2022-08-11T12:49:54.081Z,56.68
2022-08-11T12:50:53.073Z,56.64
2022-08-11T12:52:11.160Z,57.39
2022-08-11T12:52:54.086Z,57.77